createdAt,value
2016-04-04T00:00:51.784Z,23.05
2016-04-04T00:01:51.801Z,23.14
2016-04-04T00:02:51.821Z,23.62
2016-04-04T00:03:51.839Z,23.33
2016-04-04T00:04:51.857Z,23.13
2016-04-04T00:05:51.875Z,23.82
2016-04-04T00:06:51.893Z,23.8
2016-04-04T00:07:51.928Z,23.8
2016-04-04T00:08:51.945Z,23.91
2016-04-04T00:09:51.964Z,23.8
2016-04-04T00:10:51.983Z,24.48
2016-04-04T00:11:52.001Z,24.09
2016-04-04T00:12:52.019Z,23.32
2016-04-04T00:13:52.053Z,24.48
2016-04-04T00:14:52.072Z,23.32
2016-04-04T00:15:52.090Z,24.48
2016-04-04T00:16:52.108Z,24.38
2016-04-04T00:17:52.126Z,24.38
2016-04-04T00:18:52.191Z,24.09
2016-04-04T00:19:52.175Z,23.52
2016-04-04T00:20:52.194Z,24.28
2016-04-04T00:21:52.213Z,23.9
2016-04-04T00:22:52.231Z,24.28
2016-04-04T00:23:52.265Z,24.28
2016-04-04T00:24:52.283Z,23.9
2016-04-04T00:25:52.316Z,24.38
2016-04-04T00:26:52.335Z,24.38
2016-04-04T00:27:52.369Z,24.48
2016-04-04T00:28:52.388Z,24.09
2016-04-04T00:29:52.390Z,23.9
2016-04-04T00:30:52.409Z,23.61
2016-04-04T00:31:52.426Z,24.38
2016-04-04T00:32:52.460Z,24.38
2016-04-04T00:33:52.495Z,23.99
2016-04-04T00:34:52.498Z,24.48
2016-04-04T00:35:52.515Z,24.19
2016-04-04T00:36:52.534Z,24.86
2016-04-04T00:37:52.552Z,24.57
2016-04-04T00:38:52.586Z,24.09
2016-04-04T00:39:52.605Z,24.09
2016-04-04T00:40:52.638Z,23.8
2016-04-04T00:41:52.657Z,23.71
2016-04-04T00:42:52.675Z,24.19
2016-04-04T00:43:52.677Z,24.48
2016-04-04T00:44:52.711Z,24.09
2016-04-04T00:45:52.746Z,23.99
2016-04-04T00:46:52.748Z,24.19
2016-04-04T00:47:52.783Z,23.52
2016-04-04T00:48:52.785Z,24.48
2016-04-04T00:49:52.835Z,24.48
2016-04-04T00:50:52.852Z,24.48
2016-04-04T00:51:52.855Z,24.19
2016-04-04T00:52:52.889Z,24.57
2016-04-04T00:53:52.892Z,24.95
2016-04-04T00:54:52.926Z,24.76
2016-04-04T00:55:52.944Z,24.57
2016-04-04T00:56:52.963Z,24.57
2016-04-04T00:57:52.997Z,25.43
2016-04-04T00:58:53.030Z,25.42
2016-04-04T00:59:53.033Z,24.85
2016-04-04T01:00:53.051Z,24.56
2016-04-04T01:01:53.054Z,24.48
2016-04-04T01:02:53.088Z,24.76
2016-04-04T01:03:53.123Z,24.57
2016-04-04T01:04:53.126Z,24.86
2016-04-04T01:05:53.143Z,24.57
2016-04-04T01:06:53.162Z,24.76
2016-04-04T01:07:53.196Z,24.86
2016-04-04T01:08:52.449Z,24.57
2016-04-04T01:09:53.248Z,24.76
2016-04-04T01:10:53.251Z,25.34
2016-04-04T01:11:53.285Z,24.66
2016-04-04T01:12:53.303Z,24.48
2016-04-04T01:13:53.321Z,24.95
2016-04-04T01:14:53.339Z,24.66
2016-04-04T01:15:53.358Z,25.34
2016-04-04T01:16:53.376Z,24.86
2016-04-04T01:17:53.410Z,25.34
2016-04-04T01:18:53.428Z,25.34
2016-04-04T01:19:53.447Z,24.66
2016-04-04T01:20:53.464Z,25.53
2016-04-04T01:21:53.499Z,25.92
2016-04-04T01:22:53.502Z,25.53
2016-04-04T01:23:53.536Z,25.72
2016-04-04T01:24:53.555Z,25.72
2016-04-04T01:25:53.588Z,25.34
2016-04-04T01:26:53.622Z,25.34
2016-04-04T01:27:53.624Z,25.43
2016-04-04T01:28:53.643Z,24.76
2016-04-04T01:29:53.504Z,24.48
2016-04-04T01:30:53.695Z,24.48
2016-04-04T01:31:53.698Z,24.09
2016-04-04T01:32:53.716Z,24.19
2016-04-04T01:33:53.735Z,25.05
2016-04-04T01:34:53.784Z,25.24
2016-04-04T01:35:53.787Z,24.48
2016-04-04T01:36:53.805Z,24.48
2016-04-04T01:37:53.840Z,23.8
2016-04-04T01:38:53.842Z,24.38
2016-04-04T01:39:53.891Z,24.48
2016-04-04T01:40:53.894Z,24.86
2016-04-04T01:41:53.912Z,24.95
2016-04-04T01:42:53.931Z,23.71
2016-04-04T01:43:53.948Z,24.38
2016-04-04T01:44:53.983Z,23.32
2016-04-04T01:45:54.001Z,23.52
2016-04-04T01:46:54.003Z,24.38
2016-04-04T01:47:54.037Z,24.38
2016-04-04T01:48:54.055Z,23.9
2016-04-04T01:49:54.089Z,24.66
2016-04-04T01:50:54.108Z,24.09
2016-04-04T01:51:54.126Z,24.95
2016-04-04T01:52:54.144Z,24.76
2016-04-04T01:53:54.163Z,24.19
2016-04-04T01:54:54.180Z,24.48
2016-04-04T01:55:54.215Z,24.48
2016-04-04T01:56:54.233Z,25.05
2016-04-04T01:57:54.252Z,24.38
2016-04-04T01:58:54.285Z,23.9
2016-04-04T01:59:54.288Z,24.09
2016-04-04T02:00:54.312Z,23.99
2016-04-04T02:01:54.330Z,24.09
2016-04-04T02:02:54.349Z,23.99
2016-04-04T02:03:54.382Z,23.71
2016-04-04T02:04:54.401Z,23.9
2016-04-04T02:05:54.434Z,24.01
2016-04-04T02:06:54.437Z,24.38
2016-04-04T02:07:54.456Z,24.48
2016-04-04T02:08:54.489Z,24.76
2016-04-04T02:09:54.508Z,24.39
2016-04-04T02:10:54.542Z,24.2
2016-04-04T02:11:54.560Z,24.49
2016-04-04T02:12:54.578Z,24.19
2016-04-04T02:13:54.597Z,24.49
2016-04-04T02:14:54.615Z,24.68
2016-04-04T02:15:54.650Z,24.68
2016-04-04T02:16:54.667Z,24.87
2016-04-04T02:17:54.686Z,24.87
2016-04-04T02:18:54.703Z,24.57
2016-04-04T02:19:54.722Z,25.26
2016-04-04T02:20:54.788Z,24.86
2016-04-04T02:21:54.775Z,25.15
2016-04-04T02:22:54.794Z,24.49
2016-04-04T02:23:54.811Z,25.15
2016-04-04T02:24:54.845Z,25.26
2016-04-04T02:25:54.847Z,24.76
2016-04-04T02:26:54.882Z,24.77
2016-04-04T02:27:54.916Z,24.76
2016-04-04T02:28:54.950Z,24.86
2016-04-04T02:29:54.952Z,24.66
2016-04-04T02:30:55.158Z,24.49
2016-04-04T02:31:54.974Z,24.19
2016-04-04T02:32:55.007Z,24.96
2016-04-04T02:33:55.026Z,24.49
2016-04-04T02:34:55.044Z,24.29
2016-04-04T02:35:55.078Z,24.49
2016-04-04T02:36:55.081Z,24.87
2016-04-04T02:37:55.099Z,23.82
2016-04-04T02:38:55.132Z,24.2
2016-04-04T02:39:55.151Z,24.39
2016-04-04T02:40:55.185Z,24.96
2016-04-04T02:41:55.203Z,24.58
2016-04-04T02:42:55.222Z,23.91
2016-04-04T02:43:55.256Z,24.58
2016-04-04T02:44:55.274Z,23.33
2016-04-04T02:45:55.276Z,24.1
2016-04-04T02:46:55.311Z,24.29
2016-04-04T02:47:55.314Z,24.49
2016-04-04T02:48:55.347Z,24.2
2016-04-04T02:49:55.366Z,24.77
2016-04-04T02:50:55.383Z,24.68
2016-04-04T02:51:55.433Z,25.26
2016-04-04T02:52:55.420Z,25.35
2016-04-04T02:53:55.454Z,24.39
2016-04-04T02:54:55.472Z,24.96
2016-04-04T02:55:55.507Z,24.49
2016-04-04T02:56:55.524Z,24.77
2016-04-04T02:57:55.528Z,24.58
2016-04-04T02:58:55.577Z,24.39
2016-04-04T02:59:55.596Z,25.26
2016-04-04T03:00:55.598Z,24.68
2016-04-04T03:01:55.633Z,25.26
2016-04-04T03:02:55.651Z,25.92
2016-04-04T03:03:55.668Z,25.54
2016-04-04T03:04:55.688Z,25.26
2016-04-04T03:05:55.721Z,25.43
2016-04-04T03:06:55.740Z,25.43
2016-04-04T03:07:55.797Z,25.43
2016-04-04T03:08:55.785Z,25.35
2016-04-04T03:09:55.803Z,25.45
2016-04-04T03:11:09.933Z,25.26
2016-04-04T03:11:55.840Z,24.68
2016-04-04T03:12:55.858Z,25.35
2016-04-04T03:13:55.876Z,25.45
2016-04-04T03:14:55.910Z,25.45
2016-04-04T03:15:55.929Z,25.54
2016-04-04T03:16:55.946Z,25.83
2016-04-04T03:17:55.981Z,25.45
2016-04-04T03:18:55.999Z,25.54
2016-04-04T03:19:56.034Z,24.77
2016-04-04T03:20:56.036Z,24.58
2016-04-04T03:21:56.085Z,25.54
2016-04-04T03:22:56.073Z,25.92
2016-04-04T03:23:56.090Z,25.72
2016-04-04T03:24:56.125Z,25.34
2016-04-04T03:25:56.143Z,25.43
2016-04-04T03:26:56.161Z,25.45
2016-04-04T03:27:56.180Z,26.01
2016-04-04T03:28:56.214Z,25.93
2016-04-04T03:29:56.216Z,25.15
2016-04-04T03:30:56.250Z,24.86
2016-04-04T03:31:56.269Z,24.87
2016-04-04T03:32:56.286Z,25.45
2016-04-04T03:33:56.305Z,25.15
2016-04-04T03:34:56.339Z,24.86
2016-04-04T03:35:56.358Z,25.43
2016-04-04T03:36:56.375Z,25.43
2016-04-04T03:37:56.394Z,24.57
2016-04-04T03:38:56.428Z,25.43
2016-04-04T03:39:56.431Z,26.01
2016-04-04T03:40:56.465Z,25.62
2016-04-04T03:41:56.482Z,26.01
2016-04-04T03:42:56.517Z,25.43
2016-04-04T03:43:56.519Z,25.43
2016-04-04T03:44:56.584Z,26.01
2016-04-04T03:45:56.557Z,26.59
2016-04-04T03:46:56.591Z,26.49
2016-04-04T03:47:56.609Z,26.01
2016-04-04T03:48:56.626Z,25.62
2016-04-04T03:49:56.661Z,24.95
2016-04-04T03:50:56.663Z,25.82
2016-04-04T03:51:56.712Z,25.34
2016-04-04T03:52:56.731Z,26.3
2016-04-04T03:53:56.734Z,25.34
2016-04-04T03:54:56.753Z,25.92
2016-04-04T03:55:56.770Z,26.3
2016-04-04T03:56:56.804Z,26.68
2016-04-04T03:57:56.839Z,26.2
2016-04-04T03:58:56.857Z,25.82
2016-04-04T03:59:56.891Z,25.53
2016-04-04T04:00:56.894Z,25.43
2016-04-04T04:01:56.912Z,26.2
2016-04-04T04:02:56.930Z,25.53
2016-04-04T04:03:56.964Z,25.53
2016-04-04T04:04:56.983Z,25.92
2016-04-04T04:05:57.001Z,25.24
2016-04-04T04:06:57.129Z,25.72
2016-04-04T04:07:57.054Z,26.01
2016-04-04T04:08:57.056Z,25.53
2016-04-04T04:09:57.075Z,26.01
2016-04-04T04:10:57.125Z,26.3
2016-04-04T04:11:57.111Z,25.43
2016-04-04T04:12:57.161Z,26.01
2016-04-04T04:13:57.164Z,25.34
2016-04-04T04:14:57.183Z,25.43
2016-04-04T04:15:57.200Z,25.53
2016-04-04T04:16:57.234Z,25.62
2016-04-04T04:17:57.253Z,24.48
2016-04-04T04:18:57.271Z,25.43
2016-04-04T04:19:57.289Z,25.34
2016-04-04T04:20:57.307Z,24.48
2016-04-04T04:21:57.327Z,24.66
2016-04-04T04:22:57.375Z,24.95
2016-04-04T04:23:57.377Z,25.26
2016-04-04T04:24:57.397Z,24.57
2016-04-04T04:25:57.415Z,24.68
2016-04-04T04:26:57.433Z,25.26
2016-04-04T04:27:57.451Z,24.87
2016-04-04T04:28:57.471Z,26.03
2016-04-04T04:29:57.504Z,27.75
2016-04-04T04:30:57.521Z,28.71
2016-04-04T04:31:57.556Z,29.48
2016-04-04T04:32:57.573Z,29.67
2016-04-04T04:33:56.827Z,30.44
2016-04-04T04:34:57.611Z,31
2016-04-04T04:35:57.614Z,31.87
2016-04-04T04:36:57.851Z,32.06
2016-04-04T04:37:57.681Z,32.44
2016-04-04T04:38:57.700Z,32.92
2016-04-04T04:39:57.717Z,33.69
2016-04-04T04:40:57.737Z,33.88
2016-04-04T04:41:57.755Z,34.65
2016-04-04T04:42:57.773Z,35.02
2016-04-04T04:43:57.806Z,35.88
2016-04-04T04:44:57.825Z,36.74
2016-04-04T04:45:57.875Z,37.03
2016-04-04T04:46:57.861Z,37.41
2016-04-04T04:47:57.880Z,38.28
2016-04-04T04:48:57.914Z,38.47
2016-04-04T04:49:57.933Z,38.37
2016-04-04T04:50:57.950Z,39.12
2016-04-04T04:51:57.969Z,39.41
2016-04-04T04:52:57.988Z,39.98
2016-04-04T04:53:58.021Z,39.79
2016-04-04T04:54:58.024Z,40.37
2016-04-04T04:55:58.042Z,40.94
2016-04-04T04:56:58.060Z,41.71
2016-04-04T04:57:58.079Z,41.52
2016-04-04T04:58:58.113Z,42.19
2016-04-04T04:59:58.131Z,41.9
2016-04-04T05:00:58.165Z,42.19
2016-04-04T05:01:58.199Z,42.1
2016-04-04T05:02:58.201Z,41.71
2016-04-04T05:03:58.221Z,42.38
2016-04-04T05:04:58.238Z,42.29
2016-04-04T05:05:58.257Z,42.17
2016-04-04T05:06:58.275Z,41.78
2016-04-04T05:07:58.293Z,41.8
2016-04-04T05:08:58.312Z,42.27
2016-04-04T05:09:58.330Z,42.27
2016-04-04T05:10:58.348Z,42.36
2016-04-04T05:11:58.381Z,42.27
2016-04-04T05:12:58.401Z,41.6
2016-04-04T05:13:58.419Z,42.46
2016-04-04T05:14:58.452Z,42.46
2016-04-04T05:15:58.456Z,42.27
2016-04-04T05:16:58.490Z,41.97
2016-04-04T05:17:58.492Z,42.36
2016-04-04T05:18:58.525Z,42.84
2016-04-04T05:19:58.545Z,42.46
2016-04-04T05:20:58.563Z,42.46
2016-04-04T05:21:58.580Z,42.65
2016-04-04T05:22:58.599Z,41.31
2016-04-04T05:23:58.620Z,41.4
2016-04-04T05:24:58.636Z,41.4
2016-04-04T05:25:58.654Z,41.88
2016-04-04T05:26:58.567Z,41.4
2016-04-04T05:27:58.754Z,41.97
2016-04-04T05:28:58.709Z,41.69
2016-04-04T05:29:58.727Z,41.88
2016-04-04T05:30:58.762Z,40.64
2016-04-04T05:31:58.780Z,41.6
2016-04-04T05:32:58.798Z,40.73
2016-04-04T05:33:58.816Z,41.02
2016-04-04T05:34:58.881Z,40.54
2016-04-04T05:35:58.853Z,40.16
2016-04-04T05:36:58.871Z,40.06
2016-04-04T05:37:58.890Z,40.54
2016-04-04T05:38:58.924Z,40.06
2016-04-04T05:39:58.942Z,41.04
2016-04-04T05:40:58.960Z,40.17
2016-04-04T05:41:58.978Z,39.31
2016-04-04T05:42:58.997Z,38.81
2016-04-04T05:43:59.015Z,39.41
2016-04-04T05:44:59.033Z,38.45
2016-04-04T05:45:59.053Z,38.16
2016-04-04T05:46:59.086Z,38.81
2016-04-04T05:47:59.104Z,39.29
2016-04-04T05:48:59.107Z,38.81
2016-04-04T05:49:59.141Z,38.53
2016-04-04T05:50:59.159Z,39.03
2016-04-04T05:51:59.177Z,39.31
2016-04-04T05:52:59.211Z,37.87
2016-04-04T05:53:59.244Z,37.78
2016-04-04T05:54:59.233Z,37.49
2016-04-04T05:55:59.250Z,36.91
2016-04-04T05:56:59.284Z,36.82
2016-04-04T05:57:59.303Z,36.72
2016-04-04T05:58:59.322Z,37.01
2016-04-04T05:59:59.340Z,37.01
2016-04-04T06:00:59.373Z,36.72
2016-04-04T06:01:59.407Z,37.01
2016-04-04T06:02:59.410Z,37.01
2016-04-04T06:03:59.443Z,37.3
2016-04-04T06:04:59.431Z,35.96
2016-04-04T06:05:59.449Z,35.77
2016-04-04T06:06:59.484Z,35.1
2016-04-04T06:07:59.501Z,35.38
2016-04-04T06:08:59.535Z,35.1
2016-04-04T06:09:59.538Z,35.38
2016-04-04T06:10:59.556Z,35.57
2016-04-04T06:11:59.590Z,34.81
2016-04-04T06:12:59.593Z,35.19
2016-04-04T06:13:59.627Z,35.57
2016-04-04T06:14:59.645Z,34.52
2016-04-04T06:15:59.664Z,34.06
2016-04-04T06:16:59.713Z,33.96
2016-04-04T06:17:59.700Z,34.53
2016-04-04T06:18:59.719Z,34.25
2016-04-04T06:19:59.753Z,34.34
2016-04-04T06:20:59.771Z,34.06
2016-04-04T06:21:59.789Z,33.96
2016-04-04T06:22:59.808Z,33.67
2016-04-04T06:23:59.825Z,33.58
2016-04-04T06:24:59.844Z,33.86
2016-04-04T06:25:59.877Z,33.77
2016-04-04T06:26:59.880Z,33.29
2016-04-04T06:27:59.899Z,33.31
2016-04-04T06:28:59.948Z,32.44
2016-04-04T06:29:59.952Z,32.44
2016-04-04T06:30:59.985Z,33.11
2016-04-04T06:32:00.035Z,33.5
2016-04-04T06:33:00.021Z,33.4
2016-04-04T06:34:00.025Z,33.4
2016-04-04T06:35:00.059Z,31.96
2016-04-04T06:36:00.076Z,32.44
2016-04-04T06:37:00.096Z,31.87
2016-04-04T06:38:00.129Z,32.25
2016-04-04T06:39:00.163Z,32.44
2016-04-04T06:40:00.181Z,31.87
2016-04-04T06:41:00.184Z,31.96
2016-04-04T06:42:00.203Z,32.15
2016-04-04T06:43:00.236Z,31.2
2016-04-04T06:44:00.254Z,32.06
2016-04-04T06:45:00.273Z,31.96
2016-04-04T06:46:00.292Z,31.77
2016-04-04T06:47:00.325Z,31
2016-04-04T06:48:00.344Z,31.87
2016-04-04T06:49:00.362Z,32.15
2016-04-04T06:50:00.364Z,31.1
2016-04-04T06:51:00.398Z,30.9
2016-04-04T06:52:00.416Z,32.07
2016-04-04T06:53:00.435Z,31.59
2016-04-04T06:54:00.469Z,32.17
2016-04-04T06:55:00.488Z,31.98
2016-04-04T06:56:00.490Z,31.88
2016-04-04T06:57:00.524Z,31.48
2016-04-04T06:58:00.558Z,31.02
2016-04-04T06:59:00.576Z,30.82
2016-04-04T07:00:00.579Z,31.88
2016-04-04T07:01:00.602Z,31.3
2016-04-04T07:02:00.636Z,31.69
2016-04-04T07:03:00.654Z,31.79
2016-04-04T07:04:00.673Z,31.3
2016-04-04T07:05:00.706Z,32.17
2016-04-04T07:06:00.710Z,31.3
2016-04-04T07:07:00.743Z,30.82
2016-04-04T07:08:00.762Z,31.02
2016-04-04T07:09:00.795Z,31.13
2016-04-04T07:10:00.829Z,30.63
2016-04-04T07:11:00.816Z,30.82
2016-04-04T07:12:00.834Z,30.84
2016-04-04T07:13:00.869Z,30.93
2016-04-04T07:14:00.886Z,30.26
2016-04-04T07:15:00.906Z,30.07
2016-04-04T07:16:00.939Z,30.84
2016-04-04T07:17:00.957Z,31.13
2016-04-04T07:18:00.991Z,30.74
2016-04-04T07:19:01.010Z,30.55
2016-04-04T07:20:01.028Z,30.07
2016-04-04T07:21:01.046Z,29.59
2016-04-04T07:22:01.065Z,29.69
2016-04-04T07:23:01.083Z,29.51
2016-04-04T07:24:01.102Z,29.8
2016-04-04T07:25:01.135Z,29.22
2016-04-04T07:26:01.154Z,29.9
2016-04-04T07:27:01.172Z,30.28
2016-04-04T07:28:01.206Z,29.43
2016-04-04T07:29:01.224Z,29.62
2016-04-04T07:30:01.226Z,29.24
2016-04-04T07:31:01.261Z,28.37
2016-04-04T07:32:01.296Z,27.89
2016-04-04T07:33:01.344Z,27.81
2016-04-04T07:34:01.331Z,26.94
2016-04-04T07:35:01.350Z,27.51
2016-04-04T07:36:01.383Z,27.42
2016-04-04T07:37:01.434Z,27.53
2016-04-04T07:38:01.420Z,26.37
2016-04-04T07:39:01.454Z,26.86
2016-04-04T07:40:01.473Z,26.28
2016-04-04T07:41:01.491Z,26.48
2016-04-04T07:42:01.525Z,26
2016-04-04T07:43:01.542Z,25.81
2016-04-04T07:44:01.578Z,25.44
2016-04-04T07:45:01.581Z,25.34
2016-04-04T07:46:01.614Z,23.99
2016-04-04T07:47:01.663Z,25.45
2016-04-04T07:48:01.681Z,24.1
2016-04-04T07:49:01.700Z,24.6
2016-04-04T07:50:01.703Z,23.34
2016-04-04T07:51:01.736Z,24.02
2016-04-04T07:52:01.755Z,23.45
2016-04-04T07:53:01.788Z,22.69
2016-04-04T07:54:01.823Z,22.88
2016-04-04T07:55:01.841Z,23.47
2016-04-04T07:56:01.859Z,22.42
2016-04-04T07:57:01.894Z,20.97
2016-04-04T07:58:01.927Z,20.21
2016-04-04T07:59:01.961Z,20.21
2016-04-04T08:00:01.963Z,18.95
2016-04-04T08:01:01.982Z,20.59
2016-04-04T08:02:02.031Z,20.69
2016-04-04T08:03:02.035Z,19.73
2016-04-04T08:04:02.084Z,19.35
2016-04-04T08:05:02.087Z,19.93
2016-04-04T08:06:02.121Z,20.23
2016-04-04T08:07:02.155Z,19.74
2016-04-04T08:08:02.173Z,19.07
2016-04-04T08:09:02.206Z,19.07
2016-04-04T08:10:02.225Z,18.49
2016-04-04T08:11:02.259Z,18.88
2016-04-04T08:12:02.293Z,18.12
2016-04-04T08:13:02.311Z,18.21
2016-04-04T08:14:02.329Z,17.54
2016-04-04T08:15:02.378Z,18.41
2016-04-04T08:16:02.397Z,17.44
2016-04-04T08:17:02.416Z,17.35
2016-04-04T08:18:02.450Z,16.78
2016-04-04T08:19:02.484Z,16.19
2016-04-04T08:20:02.517Z,15.61
2016-04-04T08:21:02.536Z,16.09
2016-04-04T08:22:02.570Z,17.36
2016-04-04T08:23:02.588Z,16.19
2016-04-04T08:24:02.606Z,16.2
2016-04-04T08:25:02.656Z,17.36
2016-04-04T08:26:02.675Z,16.49
2016-04-04T08:27:02.708Z,16.21
2016-04-04T08:28:02.742Z,16.6
2016-04-04T08:29:02.760Z,15.72
2016-04-04T08:30:02.795Z,15.83
2016-04-04T08:31:02.829Z,15.64
2016-04-04T08:32:02.847Z,14.76
2016-04-04T08:33:02.880Z,14.57
2016-04-04T08:34:02.889Z,14.48
2016-04-04T08:35:02.911Z,14.28
2016-04-04T08:36:02.934Z,13.71
2016-04-04T08:37:02.956Z,14.19
2016-04-04T08:38:02.961Z,13.13
2016-04-04T08:39:02.991Z,13.14
2016-04-04T08:40:03.020Z,12.76
2016-04-04T08:41:03.049Z,13.15
2016-04-04T08:42:03.079Z,12.96
2016-04-04T08:43:03.109Z,11.32
2016-04-04T08:44:03.125Z,11.52
2016-04-04T08:45:03.158Z,11.82
2016-04-04T08:46:03.191Z,11.14
2016-04-04T08:47:03.223Z,10.06
2016-04-04T08:48:03.254Z,10.16
2016-04-04T08:49:03.273Z,9.77
2016-04-04T08:50:03.305Z,9.09
2016-04-04T08:51:03.338Z,9.59
2016-04-04T08:52:03.387Z,9
2016-04-04T08:53:03.436Z,9.01
2016-04-04T08:54:03.438Z,8.13
2016-04-04T08:55:03.472Z,7.93
2016-04-04T08:56:03.506Z,8.23
2016-04-04T08:57:03.539Z,7.94
2016-04-04T08:58:03.588Z,8.44
2016-04-04T08:59:03.622Z,7.35
2016-04-04T09:00:03.656Z,7.75
2016-04-04T09:01:03.691Z,7.45
2016-04-04T09:02:03.724Z,9.01
2016-04-04T09:03:03.741Z,9.21
2016-04-04T09:04:03.777Z,9.51
2016-04-04T09:05:03.826Z,9.61
2016-04-04T09:06:03.860Z,9.01
2016-04-04T09:07:03.893Z,9.12
2016-04-04T09:08:03.927Z,8.73
2016-04-04T09:09:03.977Z,9.61
2016-04-04T09:10:04.027Z,9.51
2016-04-04T09:11:04.029Z,9.41
2016-04-04T09:12:04.063Z,8.92
2016-04-04T09:13:04.081Z,9.9
2016-04-04T09:14:04.131Z,9.61
2016-04-04T09:15:04.181Z,9.01
2016-04-04T09:16:04.215Z,9.21
2016-04-04T09:17:04.248Z,9.31
2016-04-04T09:18:04.298Z,9.3
2016-04-04T09:19:04.317Z,9.59
2016-04-04T09:20:04.334Z,9
2016-04-04T09:21:04.369Z,9.39
2016-04-04T09:22:04.403Z,9.1
2016-04-04T09:23:04.452Z,9.39
2016-04-04T09:24:04.470Z,9.01
2016-04-04T09:25:04.505Z,9.11
2016-04-04T09:26:04.539Z,9.2
2016-04-04T09:27:04.619Z,8.91
2016-04-04T09:28:04.622Z,8.81
2016-04-04T09:29:04.656Z,9.31
2016-04-04T09:30:04.689Z,9.31
2016-04-04T09:31:04.724Z,9.21
2016-04-04T09:32:04.774Z,8.53
2016-04-04T09:33:04.807Z,9.21
2016-04-04T09:34:04.825Z,7.45
2016-04-04T09:35:04.860Z,7.94
2016-04-04T09:36:04.909Z,7.94
2016-04-04T09:37:04.927Z,8.62
2016-04-04T09:38:04.961Z,7.54
2016-04-04T09:39:04.996Z,8.82
2016-04-04T09:40:05.029Z,9.31
2016-04-04T09:41:05.063Z,7.65
2016-04-04T09:42:05.081Z,8.14
2016-04-04T09:43:05.131Z,7.16
2016-04-04T09:44:05.196Z,7.75
2016-04-04T09:45:05.199Z,7.85
2016-04-04T09:46:05.233Z,8.73
2016-04-04T09:47:05.595Z,8.15
2016-04-04T09:48:05.394Z,7.46
2016-04-04T09:49:05.335Z,8.34
2016-04-04T09:50:05.354Z,7.17
2016-04-04T09:51:05.403Z,7.07
2016-04-04T09:52:05.436Z,7.47
2016-04-04T09:53:05.330Z,7.86
2016-04-04T09:54:05.503Z,7.07
2016-04-04T09:55:05.538Z,7.07
2016-04-04T09:56:05.573Z,8.16
2016-04-04T09:57:05.606Z,7.67
2016-04-04T09:58:05.640Z,6.59
2016-04-04T09:59:05.674Z,6.49
2016-04-04T10:00:05.708Z,7.09
2016-04-04T10:01:05.742Z,6.2
2016-04-04T10:02:05.776Z,6.79
2016-04-04T10:03:05.826Z,6.29
2016-04-04T10:04:05.844Z,6.39
2016-04-04T10:05:05.737Z,6.39
2016-04-04T10:06:05.927Z,6.68
2016-04-04T10:07:05.946Z,6.98
2016-04-04T10:08:05.996Z,7.67
2016-04-04T10:09:06.029Z,7.57
2016-04-04T10:10:06.068Z,7.57
2016-04-04T10:11:06.101Z,7.67
2016-04-04T10:12:06.136Z,6.59
2016-04-04T10:13:06.154Z,6.98
2016-04-04T10:14:06.204Z,7.07
2016-04-04T10:15:06.237Z,7.07
2016-04-04T10:16:06.287Z,7.07
2016-04-04T10:17:06.290Z,6.38
2016-04-04T10:18:06.340Z,7.56
2016-04-04T10:19:06.373Z,7.65
2016-04-04T10:20:06.407Z,7.56
2016-04-04T10:21:06.456Z,7.95
2016-04-04T10:22:06.491Z,8.05
2016-04-04T10:23:06.509Z,7.76
2016-04-04T10:24:06.543Z,7.86
2016-04-04T10:25:06.592Z,8.05
2016-04-04T10:26:06.611Z,8.83
2016-04-04T10:27:06.676Z,8.34
2016-04-04T10:28:06.695Z,8.64
2016-04-04T10:29:06.728Z,9.13
2016-04-04T10:30:06.763Z,9.23
2016-04-04T10:31:06.811Z,9.23
2016-04-04T10:32:06.846Z,9.23
2016-04-04T10:33:06.879Z,9.53
2016-04-04T10:34:06.899Z,9.91
2016-04-04T10:35:06.980Z,9.91
2016-04-04T10:36:06.982Z,9.42
2016-04-04T10:37:07.046Z,9.12
2016-04-04T10:38:07.049Z,8.63
2016-04-04T10:39:07.082Z,8.04
2016-04-04T10:40:07.132Z,9.23
2016-04-04T10:41:07.152Z,10.89
2016-04-04T10:42:07.185Z,9.61
2016-04-04T10:43:07.219Z,9.71
2016-04-04T10:44:07.268Z,10.31
2016-04-04T10:45:07.287Z,9.71
2016-04-04T10:47:07.371Z,10.5
2016-04-04T10:48:07.389Z,10.2
2016-04-04T10:49:07.439Z,10.4
2016-04-04T10:50:07.472Z,9.22
2016-04-04T10:51:07.506Z,9.42
2016-04-04T10:52:07.572Z,10.1
2016-04-04T10:53:07.434Z,10.39
2016-04-04T10:54:07.623Z,9.89
2016-04-04T10:55:07.642Z,11.16
2016-04-04T10:56:07.675Z,10.08
2016-04-04T10:57:07.710Z,10.88
2016-04-04T10:58:07.744Z,11.57
2016-04-04T10:59:07.778Z,10.97
2016-04-04T11:00:07.811Z,11.18
2016-04-04T11:01:07.861Z,11.36
2016-04-04T11:02:07.880Z,10.97
2016-04-04T11:03:07.930Z,10.88
2016-04-04T11:04:07.947Z,11.18
2016-04-04T11:05:07.982Z,11.08
2016-04-04T11:06:08.030Z,11.47
2016-04-04T11:07:08.050Z,10.88
2016-04-04T11:08:08.099Z,9.12
2016-04-04T11:09:08.159Z,9.7
2016-04-04T11:10:08.161Z,9.8
2016-04-04T11:11:08.195Z,9.9
2016-04-04T11:12:08.228Z,9.51
2016-04-04T11:13:08.262Z,10.19
2016-04-04T11:14:08.281Z,11.07
2016-04-04T11:15:08.331Z,10.88
2016-04-04T11:16:08.364Z,10.09
2016-04-04T11:17:08.398Z,9.7
2016-04-04T11:18:08.417Z,9.8
2016-04-04T11:19:08.451Z,9.99
2016-04-04T11:20:08.500Z,9.7
2016-04-04T11:21:08.534Z,9.69
2016-04-04T11:22:08.569Z,10.87
2016-04-04T11:23:08.603Z,11.16
2016-04-04T11:24:08.636Z,11.17
2016-04-04T11:25:08.670Z,10.58
2016-04-04T11:26:08.705Z,10.98
2016-04-04T11:27:08.738Z,11.37
2016-04-04T11:28:08.772Z,11.08
2016-04-04T11:29:08.822Z,11.67
2016-04-04T11:30:08.840Z,10
2016-04-04T11:31:08.874Z,10.99
2016-04-04T11:32:08.891Z,10.79
2016-04-04T11:33:08.926Z,10.5
2016-04-04T11:34:08.975Z,10.89
2016-04-04T11:35:09.009Z,11.58
2016-04-04T11:36:09.043Z,10.99
2016-04-04T11:37:09.061Z,11.09
2016-04-04T11:38:09.095Z,10.31
2016-04-04T11:39:09.135Z,10.5
2016-04-04T11:40:09.168Z,10.39
2016-04-04T11:41:09.218Z,9.91
2016-04-04T11:42:09.251Z,10.98
2016-04-04T11:43:09.364Z,9.91
2016-04-04T11:44:09.304Z,9.9
2016-04-04T11:45:09.338Z,10.49
2016-04-04T11:46:09.372Z,10.88
2016-04-04T11:47:09.421Z,10.39
2016-04-04T11:48:09.642Z,11.57
2016-04-04T11:49:09.474Z,10.38
2016-04-04T11:50:09.507Z,10.19
2016-04-04T11:51:09.557Z,11.08
2016-04-04T11:52:09.575Z,11.17
2016-04-04T11:53:09.610Z,11.56
2016-04-04T11:54:09.627Z,11.16
2016-04-04T11:55:09.694Z,10.78
2016-04-04T11:56:09.696Z,11.07
2016-04-04T11:57:09.746Z,10.38
2016-04-04T11:58:09.780Z,11.07
2016-04-04T11:59:09.813Z,10.97
2016-04-04T12:00:09.847Z,11.75
2016-04-04T12:01:09.881Z,10.28
2016-04-04T12:02:09.899Z,10.77
2016-04-04T12:03:09.933Z,11.26
2016-04-04T12:04:09.967Z,11.74
2016-04-04T12:05:10.001Z,11.55
2016-04-04T12:06:10.034Z,11.45
2016-04-04T12:07:10.084Z,10.47
2016-04-04T12:08:10.103Z,11.07
2016-04-04T12:09:10.136Z,11.85
2016-04-04T12:10:10.156Z,11.55
2016-04-04T12:11:10.204Z,12.23
2016-04-04T12:12:10.223Z,11.35
2016-04-04T12:13:10.257Z,11.84
2016-04-04T12:14:10.292Z,11.06
2016-04-04T12:15:10.325Z,10.47
2016-04-04T12:16:10.375Z,10.67
2016-04-04T12:17:10.408Z,11.65
2016-04-04T12:18:10.442Z,12.04
2016-04-04T12:19:10.461Z,11.64
2016-04-04T12:20:10.494Z,11.93
2016-04-04T12:21:10.529Z,12.71
2016-04-04T12:22:10.563Z,11.93
2016-04-04T12:23:10.597Z,12.62
2016-04-04T12:24:10.631Z,12.52
2016-04-04T12:25:10.664Z,13.11
2016-04-04T12:26:10.699Z,12.42
2016-04-04T12:27:10.717Z,12.62
2016-04-04T12:28:10.750Z,11.35
2016-04-04T12:29:10.785Z,12.03
2016-04-04T12:30:10.834Z,11.54
2016-04-04T12:31:10.868Z,11.94
2016-04-04T12:32:10.902Z,11.74
2016-04-04T12:33:10.920Z,12.53
2016-04-04T12:34:10.970Z,12.43
2016-04-04T12:35:11.003Z,11.84
2016-04-04T12:36:11.037Z,11.94
2016-04-04T12:37:11.056Z,11.55
2016-04-04T12:38:11.090Z,11.07
2016-04-04T12:39:11.123Z,11.55
2016-04-04T12:40:11.174Z,11.16
2016-04-04T12:41:11.192Z,11.64
2016-04-04T12:42:11.226Z,12.04
2016-04-04T12:43:11.245Z,12.13
2016-04-04T12:44:11.278Z,11.93
2016-04-04T12:45:11.328Z,11.54
2016-04-04T12:46:11.345Z,12.23
2016-04-04T12:47:11.395Z,11.35
2016-04-04T12:48:11.414Z,10.86
2016-04-04T12:49:11.431Z,11.55
2016-04-04T12:50:11.481Z,11.35
2016-04-04T12:51:11.500Z,12.04
2016-04-04T12:52:11.533Z,10.68
2016-04-04T12:53:11.583Z,11.25
2016-04-04T12:54:11.648Z,10.86
2016-04-04T12:55:11.635Z,10.97
2016-04-04T12:56:11.685Z,11.84
2016-04-04T12:57:11.702Z,11.45
2016-04-04T12:58:11.738Z,12.03
2016-04-04T12:59:11.755Z,11.25
2016-04-04T13:00:11.805Z,12.03
2016-04-04T13:01:11.839Z,12.23